Skip Navigation LinksHome page > Weather > Current weather Skip Navigation Links

Current Weather

Lansing Muni, Lansing, Ill.

For information only: do not use for flight planning or navigation.
Latest weather
Observation time Tuesday, January 26, 2021 5:15 PM CST
Local time Tuesday, January 26, 2021 5:39 PM CST
Flight conditions Marginal Visual Meteorological Conditions
Winds
Wind direction North (10°)
Wind speed 6 mph
Visibility 7 mi.
Present weather light snow
Sky condition
Ceiling 1,000 ft. broken clouds
Cloud layer broken clouds 1,000 ft.
Cloud layer overcast 1,600 ft.
Temperature 31°F
Dewpoint 29°F
Altimeter 30.03 in.Hg
Derived measurements
Relative humidity 92%
Wind chill 26°F
Density altitude -1297 ft.
Remarks
Fully automated report.
Automated weather observing station with precipitation discriminator.
METAR KIGQ 262315Z AUTO 01005KT 7SM -SN BKN010 OVC016 00/M01 A3003 RMK AO2 T10031015

Settings

Location code

InnerDrive.Weather 4.0.6770.0 Release CLR 4.0.30319.42000
Copyright ©2018 Inner Drive Technology. All rights reserved. Portions Copyright ©1986-2018 David Braverman.

Find weather

Site navigation


Skip Navigation Links

Place info

Page info

PayPal - The safer, easier way to pay online!

Return home.

Copyright ©2021 Inner Drive Technology. Purveyors of fine, hand-crafted computer software. Page printed 2021-01-26T23:39:45 UTC.